Aviation Digital Data Service (ADDS)

Output produced by METARs form (0244 UTC 24 July 2017)
found at http://www.aviationweather.gov/adds/metars/
 
MUSC 232300Z 2400/2424 24012KT 9000 SCT020 
     TEMPO 2400/2401 3000 TSRA SCT015CB BKN020 
     BECMG 2402/2404 VRB03KT 
     BECMG 2413/2415 09010KT 
     TEMPO 2418/2424 3000 TSRA SCT015CB BKN020
       
MUCU 232300Z 2400/2424 17007KT 9000 SCT020 
     TEMPO 2400/2401 3000 TSRA SCT015CB BKN020 
     BECMG 2403/2405 36005KT 
     BECMG 2413/2415 19010KT 
     TEMPO 2418/2424 3000 TSRA SCT015CB BKN020
       
MUHG 232300Z 2400/2424 08011KT 9000 SCT020 
     TEMPO 2400/2401 3000 TSRA SCT015CB BKN020 
     BECMG 2403/2405 VRB03KT 
     BECMG 2413/2415 09010KT 
     TEMPO 2418/2424 3000 TSRA SCT015CB BKN020
       
TAF MUGM 2323/2423 13014KT 9999 FEW040 SCT280 QNH2996INS 
     BECMG 2401/2403 34006KT 9999 FEW030 SCT080 SCT250 QNH2993INS 
     BECMG 2414/2416 14015KT FEW040 SCT280 QNH2992INS T26/2410Z T33/2420Z FN00188
       
MUCM 232300Z 2400/2424 10008KT 9000 SCT020 
     TEMPO 2400/2401 3000 TSRA SCT015CB BKN020 
     BECMG 2403/2405 VRB03KT 
     BECMG 2413/2415 12010KT 
     TEMPO 2418/2424 3000 TSRA SCT015CB BKN020
       
MUCC 232300Z 2400/2424 09015KT 9000 SCT020 
     TEMPO 2400/2401 3000 TSRA SCT015CB BKN020 
     BECMG 2403/2405 VRB03KT 
     BECMG 2413/2415 09010KT 
     TEMPO 2418/2424 SCT015CB BKN020
       
MUHA 232300Z 2400/2424 06013KT 9000 FEW035 
     BECMG 2401/2403 12003KT 
     BECMG 2413/2415 18010KT 
     BECMG 2420/2422 02008KT
       
MUVR 232300Z 2400/2424 04014KT 9000 SCT020 
     TEMPO 2400/2401 3000 TSRA SCT015CB BKN015 
     BECMG 2402/2404 VRB03KT 
     BECMG 2413/2415 10010KT 
     TEMPO 2418/2424 3000 TSRA SCT015CB BKN020